CheckWX is a tool to help pilots better visualize weather data.  It is not intended as a substitute for an official pre-flight weather briefing.

21:19:23 UTC

KPRC METAR
Ernest A Love Field Airport
Prescott, Arizona, USA
Current

26 mins ago

KPRC 232053Z 00000KT 10SM CLR 01/M11 A3023 RMK AO2 SLP257 T00111111 58007
Observed
Feb-23 @ 20:53 UTC
Visibility
10 SM
Flight Rules
VFR
Cloud Levels
  • Clear skies
Temperature
C / 34°F
Dewpoint
-11°C / 12°F
Humidity
41%
Altimeter
30.23" Hg
Pressure
1025.7 hPa
Previous

1 hour ago

KPRC 231953Z 00000KT 10SM CLR 00/M12 A3025 RMK AO2 SLP263 T00001117
Observed
Feb-23 @ 19:53 UTC
Visibility
10 SM
Flight Rules
VFR
Cloud Levels
  • Clear skies
Temperature
C / 32°F
Dewpoint
-12°C / 10°F
Humidity
40%
Altimeter
30.25" Hg
Pressure
1026.3 hPa
Previous

2 hours ago

KPRC 231853Z 00000KT 10SM CLR M01/M07 A3026 RMK AO2 SLP263 T10061072
Observed
Feb-23 @ 18:53 UTC
Visibility
10 SM
Flight Rules
VFR
Cloud Levels
  • Clear skies
Temperature
-1°C / 30°F
Dewpoint
-7°C / 19°F
Humidity
64%
Altimeter
30.26" Hg
Pressure
1026.3 hPa